sensor_id;sensor_type;location;lat;lon;timestamp;P1;durP1;ratioP1;P2;durP2;ratioP2
70253;SDS011;57649;42.968;1.608;2022-08-19T00:01:47;4.35;;;2.45;;
70253;SDS011;57649;42.968;1.608;2022-08-19T00:04:14;4.82;;;2.58;;
70253;SDS011;57649;42.968;1.608;2022-08-19T00:06:41;3.63;;;2.85;;
70253;SDS011;57649;42.968;1.608;2022-08-19T00:09:10;6.10;;;3.10;;
70253;SDS011;57649;42.968;1.608;2022-08-19T00:11:37;4.63;;;2.65;;
70253;SDS011;57649;42.968;1.608;2022-08-19T00:14:05;4.30;;;3.20;;
70253;SDS011;57649;42.968;1.608;2022-08-19T00:16:33;6.28;;;2.95;;
70253;SDS011;57649;42.968;1.608;2022-08-19T00:18:59;4.90;;;2.55;;
70253;SDS011;57649;42.968;1.608;2022-08-19T00:21:25;6.30;;;2.95;;
70253;SDS011;57649;42.968;1.608;2022-08-19T00:23:51;5.35;;;2.95;;
70253;SDS011;57649;42.968;1.608;2022-08-19T00:26:18;3.67;;;2.60;;
70253;SDS011;57649;42.968;1.608;2022-08-19T00:28:43;3.72;;;2.65;;
70253;SDS011;57649;42.968;1.608;2022-08-19T00:31:09;8.48;;;2.67;;
70253;SDS011;57649;42.968;1.608;2022-08-19T00:33:35;5.28;;;2.45;;
70253;SDS011;57649;42.968;1.608;2022-08-19T00:36:01;3.35;;;2.58;;
70253;SDS011;57649;42.968;1.608;2022-08-19T00:38:29;8.63;;;2.92;;
70253;SDS011;57649;42.968;1.608;2022-08-19T00:40:55;3.70;;;2.75;;
70253;SDS011;57649;42.968;1.608;2022-08-19T00:43:21;4.55;;;3.20;;
70253;SDS011;57649;42.968;1.608;2022-08-19T00:45:50;6.57;;;2.95;;
70253;SDS011;57649;42.968;1.608;2022-08-19T00:48:17;4.72;;;2.60;;
70253;SDS011;57649;42.968;1.608;2022-08-19T00:50:43;4.43;;;2.67;;
70253;SDS011;57649;42.968;1.608;2022-08-19T00:53:10;5.85;;;2.50;;
70253;SDS011;57649;42.968;1.608;2022-08-19T00:55:40;4.40;;;3.00;;
70253;SDS011;57649;42.968;1.608;2022-08-19T00:58:08;4.35;;;2.20;;
70253;SDS011;57649;42.968;1.608;2022-08-19T01:00:37;3.92;;;2.42;;
70253;SDS011;57649;42.968;1.608;2022-08-19T01:03:08;3.88;;;2.80;;
70253;SDS011;57649;42.968;1.608;2022-08-19T01:05:38;4.93;;;2.42;;
70253;SDS011;57649;42.968;1.608;2022-08-19T01:08:06;4.50;;;2.40;;
70253;SDS011;57649;42.968;1.608;2022-08-19T01:10:37;6.80;;;3.05;;
70253;SDS011;57649;42.968;1.608;2022-08-19T01:13:06;5.45;;;2.47;;
70253;SDS011;57649;42.968;1.608;2022-08-19T01:15:34;3.03;;;2.38;;
70253;SDS011;57649;42.968;1.608;2022-08-19T01:18:06;3.78;;;2.58;;
70253;SDS011;57649;42.968;1.608;2022-08-19T01:20:34;5.82;;;2.97;;
70253;SDS011;57649;42.968;1.608;2022-08-19T01:23:00;8.90;;;2.95;;
70253;SDS011;57649;42.968;1.608;2022-08-19T01:25:31;5.03;;;2.90;;
70253;SDS011;57649;42.968;1.608;2022-08-19T01:28:01;4.10;;;3.03;;
70253;SDS011;57649;42.968;1.608;2022-08-19T01:30:28;5.20;;;2.75;;
70253;SDS011;57649;42.968;1.608;2022-08-19T01:32:56;5.25;;;2.80;;
70253;SDS011;57649;42.968;1.608;2022-08-19T01:35:23;7.80;;;3.15;;
70253;SDS011;57649;42.968;1.608;2022-08-19T01:37:57;5.75;;;3.05;;
70253;SDS011;57649;42.968;1.608;2022-08-19T01:40:28;5.18;;;3.42;;
70253;SDS011;57649;42.968;1.608;2022-08-19T01:42:56;7.13;;;2.45;;
70253;SDS011;57649;42.968;1.608;2022-08-19T01:45:22;5.53;;;3.10;;
70253;SDS011;57649;42.968;1.608;2022-08-19T01:47:50;4.85;;;2.58;;
70253;SDS011;57649;42.968;1.608;2022-08-19T01:50:16;7.28;;;2.83;;
70253;SDS011;57649;42.968;1.608;2022-08-19T01:52:42;3.55;;;2.70;;
70253;SDS011;57649;42.968;1.608;2022-08-19T01:55:10;8.02;;;2.83;;
70253;SDS011;57649;42.968;1.608;2022-08-19T01:57:38;7.47;;;2.95;;
70253;SDS011;57649;42.968;1.608;2022-08-19T02:00:07;5.53;;;2.65;;
70253;SDS011;57649;42.968;1.608;2022-08-19T02:02:35;5.55;;;2.83;;
70253;SDS011;57649;42.968;1.608;2022-08-19T02:05:01;6.85;;;2.80;;
70253;SDS011;57649;42.968;1.608;2022-08-19T02:07:27;7.10;;;2.65;;
70253;SDS011;57649;42.968;1.608;2022-08-19T02:09:53;5.25;;;2.75;;
70253;SDS011;57649;42.968;1.608;2022-08-19T02:12:19;6.20;;;2.83;;
70253;SDS011;57649;42.968;1.608;2022-08-19T02:14:45;7.72;;;2.63;;
70253;SDS011;57649;42.968;1.608;2022-08-19T02:17:11;5.28;;;2.80;;
70253;SDS011;57649;42.968;1.608;2022-08-19T02:19:37;3.65;;;2.63;;
70253;SDS011;57649;42.968;1.608;2022-08-19T02:22:02;6.38;;;2.72;;
70253;SDS011;57649;42.968;1.608;2022-08-19T02:24:28;4.95;;;3.05;;
70253;SDS011;57649;42.968;1.608;2022-08-19T02:26:54;6.03;;;3.30;;
70253;SDS011;57649;42.968;1.608;2022-08-19T02:29:19;7.60;;;3.38;;
70253;SDS011;57649;42.968;1.608;2022-08-19T02:31:45;6.13;;;2.72;;
70253;SDS011;57649;42.968;1.608;2022-08-19T02:34:11;8.18;;;2.90;;
70253;SDS011;57649;42.968;1.608;2022-08-19T02:36:36;7.07;;;2.97;;
70253;SDS011;57649;42.968;1.608;2022-08-19T02:39:02;4.93;;;2.85;;
70253;SDS011;57649;42.968;1.608;2022-08-19T02:41:29;8.82;;;3.30;;
70253;SDS011;57649;42.968;1.608;2022-08-19T02:43:56;6.70;;;3.35;;
70253;SDS011;57649;42.968;1.608;2022-08-19T02:46:25;6.43;;;3.00;;
70253;SDS011;57649;42.968;1.608;2022-08-19T02:48:55;5.30;;;3.00;;
70253;SDS011;57649;42.968;1.608;2022-08-19T02:51:26;7.77;;;3.00;;
70253;SDS011;57649;42.968;1.608;2022-08-19T02:53:53;4.47;;;2.45;;
70253;SDS011;57649;42.968;1.608;2022-08-19T02:56:19;3.70;;;2.63;;
70253;SDS011;57649;42.968;1.608;2022-08-19T02:58:46;4.75;;;2.80;;
70253;SDS011;57649;42.968;1.608;2022-08-19T03:01:19;8.10;;;2.42;;
70253;SDS011;57649;42.968;1.608;2022-08-19T03:04:05;5.30;;;2.55;;
70253;SDS011;57649;42.968;1.608;2022-08-19T03:06:35;3.88;;;2.53;;
70253;SDS011;57649;42.968;1.608;2022-08-19T03:09:02;3.87;;;3.00;;
70253;SDS011;57649;42.968;1.608;2022-08-19T03:11:29;4.55;;;3.10;;
70253;SDS011;57649;42.968;1.608;2022-08-19T03:13:56;7.65;;;2.80;;
70253;SDS011;57649;42.968;1.608;2022-08-19T03:16:23;4.38;;;2.47;;
70253;SDS011;57649;42.968;1.608;2022-08-19T03:18:50;4.97;;;2.45;;
70253;SDS011;57649;42.968;1.608;2022-08-19T03:21:17;5.60;;;2.50;;
70253;SDS011;57649;42.968;1.608;2022-08-19T03:23:44;4.47;;;2.70;;
70253;SDS011;57649;42.968;1.608;2022-08-19T03:26:10;4.60;;;2.85;;
70253;SDS011;57649;42.968;1.608;2022-08-19T03:28:35;6.05;;;2.95;;
70253;SDS011;57649;42.968;1.608;2022-08-19T03:31:05;4.30;;;2.65;;
70253;SDS011;57649;42.968;1.608;2022-08-19T03:33:35;5.13;;;2.88;;
70253;SDS011;57649;42.968;1.608;2022-08-19T03:36:02;9.48;;;3.00;;
70253;SDS011;57649;42.968;1.608;2022-08-19T03:38:43;4.85;;;2.65;;
70253;SDS011;57649;42.968;1.608;2022-08-19T03:41:14;8.80;;;3.17;;
70253;SDS011;57649;42.968;1.608;2022-08-19T03:43:42;4.88;;;2.47;;
70253;SDS011;57649;42.968;1.608;2022-08-19T03:46:09;4.05;;;2.58;;
70253;SDS011;57649;42.968;1.608;2022-08-19T03:48:38;3.28;;;2.53;;
70253;SDS011;57649;42.968;1.608;2022-08-19T03:51:05;3.85;;;2.47;;
70253;SDS011;57649;42.968;1.608;2022-08-19T03:53:32;3.03;;;2.40;;
70253;SDS011;57649;42.968;1.608;2022-08-19T03:55:59;2.75;;;1.80;;
70253;SDS011;57649;42.968;1.608;2022-08-19T03:58:26;4.93;;;2.50;;
70253;SDS011;57649;42.968;1.608;2022-08-19T04:00:54;5.22;;;2.05;;
70253;SDS011;57649;42.968;1.608;2022-08-19T04:03:23;1.70;;;1.45;;
70253;SDS011;57649;42.968;1.608;2022-08-19T04:05:51;2.53;;;1.60;;
70253;SDS011;57649;42.968;1.608;2022-08-19T04:08:18;3.00;;;1.85;;
70253;SDS011;57649;42.968;1.608;2022-08-19T04:10:49;3.15;;;1.70;;
70253;SDS011;57649;42.968;1.608;2022-08-19T04:13:17;2.55;;;1.80;;
70253;SDS011;57649;42.968;1.608;2022-08-19T04:15:44;3.43;;;1.83;;
70253;SDS011;57649;42.968;1.608;2022-08-19T04:18:11;2.38;;;1.50;;
70253;SDS011;57649;42.968;1.608;2022-08-19T04:20:41;2.95;;;1.98;;
70253;SDS011;57649;42.968;1.608;2022-08-19T04:23:09;1.77;;;1.35;;
70253;SDS011;57649;42.968;1.608;2022-08-19T04:25:42;3.08;;;1.70;;
70253;SDS011;57649;42.968;1.608;2022-08-19T04:28:09;3.45;;;1.67;;
70253;SDS011;57649;42.968;1.608;2022-08-19T04:30:43;3.70;;;1.80;;
70253;SDS011;57649;42.968;1.608;2022-08-19T04:33:11;2.38;;;1.27;;
70253;SDS011;57649;42.968;1.608;2022-08-19T04:35:39;1.50;;;1.30;;
70253;SDS011;57649;42.968;1.608;2022-08-19T04:38:06;3.47;;;1.80;;
70253;SDS011;57649;42.968;1.608;2022-08-19T04:40:33;5.07;;;1.67;;
70253;SDS011;57649;42.968;1.608;2022-08-19T04:43:18;3.03;;;1.75;;
70253;SDS011;57649;42.968;1.608;2022-08-19T04:45:44;5.28;;;2.00;;
70253;SDS011;57649;42.968;1.608;2022-08-19T04:48:11;2.60;;;1.85;;
70253;SDS011;57649;42.968;1.608;2022-08-19T04:50:39;3.85;;;2.53;;
70253;SDS011;57649;42.968;1.608;2022-08-19T04:53:06;2.60;;;2.35;;
70253;SDS011;57649;42.968;1.608;2022-08-19T04:55:32;3.88;;;2.47;;
70253;SDS011;57649;42.968;1.608;2022-08-19T04:57:58;4.13;;;2.58;;
70253;SDS011;57649;42.968;1.608;2022-08-19T05:00:24;6.93;;;2.80;;
70253;SDS011;57649;42.968;1.608;2022-08-19T05:02:50;6.38;;;2.80;;
70253;SDS011;57649;42.968;1.608;2022-08-19T05:05:15;6.47;;;3.15;;
70253;SDS011;57649;42.968;1.608;2022-08-19T05:07:41;5.07;;;2.78;;
70253;SDS011;57649;42.968;1.608;2022-08-19T05:10:07;4.10;;;2.50;;
70253;SDS011;57649;42.968;1.608;2022-08-19T05:12:33;7.63;;;3.13;;
70253;SDS011;57649;42.968;1.608;2022-08-19T05:14:58;6.05;;;3.08;;
70253;SDS011;57649;42.968;1.608;2022-08-19T05:17:25;4.53;;;2.83;;
70253;SDS011;57649;42.968;1.608;2022-08-19T05:19:52;5.55;;;2.92;;
70253;SDS011;57649;42.968;1.608;2022-08-19T05:22:36;6.97;;;3.10;;
70253;SDS011;57649;42.968;1.608;2022-08-19T05:25:06;3.95;;;2.88;;
70253;SDS011;57649;42.968;1.608;2022-08-19T05:27:34;5.85;;;2.80;;
70253;SDS011;57649;42.968;1.608;2022-08-19T05:30:00;4.50;;;3.05;;
70253;SDS011;57649;42.968;1.608;2022-08-19T05:32:26;5.93;;;2.72;;
70253;SDS011;57649;42.968;1.608;2022-08-19T05:34:52;7.07;;;3.33;;
70253;SDS011;57649;42.968;1.608;2022-08-19T05:37:18;5.60;;;2.65;;
70253;SDS011;57649;42.968;1.608;2022-08-19T05:39:43;5.22;;;2.50;;
70253;SDS011;57649;42.968;1.608;2022-08-19T05:42:09;5.53;;;2.60;;
70253;SDS011;57649;42.968;1.608;2022-08-19T05:44:38;4.18;;;2.42;;
70253;SDS011;57649;42.968;1.608;2022-08-19T05:47:09;7.43;;;3.15;;
70253;SDS011;57649;42.968;1.608;2022-08-19T05:49:36;4.15;;;2.60;;
70253;SDS011;57649;42.968;1.608;2022-08-19T05:52:03;6.30;;;2.40;;
70253;SDS011;57649;42.968;1.608;2022-08-19T05:54:30;5.45;;;2.42;;
70253;SDS011;57649;42.968;1.608;2022-08-19T05:56:56;4.30;;;2.40;;
70253;SDS011;57649;42.968;1.608;2022-08-19T05:59:21;6.15;;;2.38;;
70253;SDS011;57649;42.968;1.608;2022-08-19T06:01:47;8.45;;;2.58;;
70253;SDS011;57649;42.968;1.608;2022-08-19T06:04:20;6.20;;;2.90;;
70253;SDS011;57649;42.968;1.608;2022-08-19T06:06:46;5.97;;;2.85;;
70253;SDS011;57649;42.968;1.608;2022-08-19T06:09:13;9.63;;;3.40;;
70253;SDS011;57649;42.968;1.608;2022-08-19T06:11:40;5.95;;;3.17;;
70253;SDS011;57649;42.968;1.608;2022-08-19T06:14:12;5.30;;;3.33;;
70253;SDS011;57649;42.968;1.608;2022-08-19T06:16:40;5.10;;;3.17;;
70253;SDS011;57649;42.968;1.608;2022-08-19T06:19:07;4.50;;;3.00;;
70253;SDS011;57649;42.968;1.608;2022-08-19T06:21:36;5.40;;;3.20;;
70253;SDS011;57649;42.968;1.608;2022-08-19T06:24:04;8.68;;;3.60;;
70253;SDS011;57649;42.968;1.608;2022-08-19T06:26:31;7.45;;;3.42;;
70253;SDS011;57649;42.968;1.608;2022-08-19T06:28:59;4.40;;;3.10;;
70253;SDS011;57649;42.968;1.608;2022-08-19T06:31:26;2.97;;;2.55;;
70253;SDS011;57649;42.968;1.608;2022-08-19T06:33:53;6.57;;;2.60;;
70253;SDS011;57649;42.968;1.608;2022-08-19T06:36:26;6.55;;;3.25;;
70253;SDS011;57649;42.968;1.608;2022-08-19T06:38:56;4.55;;;2.35;;
70253;SDS011;57649;42.968;1.608;2022-08-19T06:41:23;5.60;;;2.60;;
70253;SDS011;57649;42.968;1.608;2022-08-19T06:43:51;5.28;;;2.67;;
70253;SDS011;57649;42.968;1.608;2022-08-19T06:46:17;8.02;;;2.80;;
70253;SDS011;57649;42.968;1.608;2022-08-19T06:48:44;10.98;;;3.53;;
70253;SDS011;57649;42.968;1.608;2022-08-19T06:51:11;5.97;;;2.80;;
70253;SDS011;57649;42.968;1.608;2022-08-19T06:53:37;12.27;;;2.92;;
70253;SDS011;57649;42.968;1.608;2022-08-19T06:56:04;5.25;;;2.83;;
70253;SDS011;57649;42.968;1.608;2022-08-19T06:58:29;9.18;;;2.45;;
70253;SDS011;57649;42.968;1.608;2022-08-19T07:01:01;5.72;;;2.65;;
70253;SDS011;57649;42.968;1.608;2022-08-19T07:03:31;5.75;;;3.10;;
70253;SDS011;57649;42.968;1.608;2022-08-19T07:06:02;5.80;;;2.70;;
70253;SDS011;57649;42.968;1.608;2022-08-19T07:08:29;4.07;;;2.45;;
70253;SDS011;57649;42.968;1.608;2022-08-19T07:10:54;4.35;;;3.22;;
70253;SDS011;57649;42.968;1.608;2022-08-19T07:13:20;12.90;;;3.20;;
70253;SDS011;57649;42.968;1.608;2022-08-19T07:15:46;3.00;;;2.25;;
70253;SDS011;57649;42.968;1.608;2022-08-19T07:18:12;4.32;;;2.05;;
70253;SDS011;57649;42.968;1.608;2022-08-19T07:20:38;4.70;;;2.65;;
70253;SDS011;57649;42.968;1.608;2022-08-19T07:23:04;4.38;;;1.95;;
70253;SDS011;57649;42.968;1.608;2022-08-19T07:25:30;4.03;;;2.20;;
70253;SDS011;57649;42.968;1.608;2022-08-19T07:27:55;3.80;;;2.03;;
70253;SDS011;57649;42.968;1.608;2022-08-19T07:30:21;4.03;;;2.20;;
70253;SDS011;57649;42.968;1.608;2022-08-19T07:32:48;4.55;;;2.33;;
70253;SDS011;57649;42.968;1.608;2022-08-19T07:35:15;3.83;;;1.70;;
70253;SDS011;57649;42.968;1.608;2022-08-19T07:37:44;3.38;;;2.00;;
70253;SDS011;57649;42.968;1.608;2022-08-19T07:40:10;5.10;;;2.05;;
70253;SDS011;57649;42.968;1.608;2022-08-19T07:42:36;2.65;;;1.60;;
70253;SDS011;57649;42.968;1.608;2022-08-19T07:45:02;1.52;;;1.20;;
70253;SDS011;57649;42.968;1.608;2022-08-19T07:47:28;1.70;;;1.42;;
70253;SDS011;57649;42.968;1.608;2022-08-19T07:49:55;2.50;;;1.65;;
70253;SDS011;57649;42.968;1.608;2022-08-19T07:52:21;3.30;;;1.70;;
70253;SDS011;57649;42.968;1.608;2022-08-19T07:54:47;1.67;;;1.00;;
70253;SDS011;57649;42.968;1.608;2022-08-19T07:57:13;2.15;;;1.10;;
70253;SDS011;57649;42.968;1.608;2022-08-19T07:59:38;0.82;;;0.70;;
70253;SDS011;57649;42.968;1.608;2022-08-19T08:02:04;1.05;;;0.70;;
70253;SDS011;57649;42.968;1.608;2022-08-19T08:04:30;1.00;;;0.70;;
70253;SDS011;57649;42.968;1.608;2022-08-19T08:07:14;1.20;;;0.80;;
70253;SDS011;57649;42.968;1.608;2022-08-19T08:09:59;1.38;;;0.93;;
70253;SDS011;57649;42.968;1.608;2022-08-19T08:12:30;1.13;;;0.50;;
70253;SDS011;57649;42.968;1.608;2022-08-19T08:14:59;1.05;;;0.50;;
70253;SDS011;57649;42.968;1.608;2022-08-19T08:17:29;1.30;;;0.50;;
70253;SDS011;57649;42.968;1.608;2022-08-19T08:19:56;0.75;;;0.50;;
70253;SDS011;57649;42.968;1.608;2022-08-19T08:22:22;2.63;;;0.60;;
70253;SDS011;57649;42.968;1.608;2022-08-19T08:25:11;1.42;;;0.40;;
70253;SDS011;57649;42.968;1.608;2022-08-19T08:27:39;0.75;;;0.50;;
70253;SDS011;57649;42.968;1.608;2022-08-19T08:30:11;2.08;;;0.70;;
70253;SDS011;57649;42.968;1.608;2022-08-19T08:32:39;1.00;;;0.65;;
70253;SDS011;57649;42.968;1.608;2022-08-19T08:35:06;3.17;;;1.10;;
70253;SDS011;57649;42.968;1.608;2022-08-19T08:37:34;1.70;;;1.05;;
70253;SDS011;57649;42.968;1.608;2022-08-19T08:40:07;1.90;;;1.20;;
70253;SDS011;57649;42.968;1.608;2022-08-19T08:42:57;3.00;;;1.13;;
70253;SDS011;57649;42.968;1.608;2022-08-19T08:45:30;3.05;;;1.20;;
70253;SDS011;57649;42.968;1.608;2022-08-19T08:47:58;2.63;;;1.10;;
70253;SDS011;57649;42.968;1.608;2022-08-19T08:50:30;2.28;;;1.38;;
70253;SDS011;57649;42.968;1.608;2022-08-19T08:53:01;2.70;;;1.20;;
70253;SDS011;57649;42.968;1.608;2022-08-19T08:55:30;3.30;;;1.23;;
70253;SDS011;57649;42.968;1.608;2022-08-19T08:57:59;3.47;;;1.40;;
70253;SDS011;57649;42.968;1.608;2022-08-19T09:00:37;2.85;;;1.90;;
70253;SDS011;57649;42.968;1.608;2022-08-19T09:03:06;4.10;;;1.50;;
70253;SDS011;57649;42.968;1.608;2022-08-19T09:05:41;3.67;;;1.90;;
70253;SDS011;57649;42.968;1.608;2022-08-19T09:08:35;2.95;;;1.35;;
70253;SDS011;57649;42.968;1.608;2022-08-19T09:11:15;4.03;;;1.55;;
70253;SDS011;57649;42.968;1.608;2022-08-19T09:16:59;2.38;;;1.30;;
70253;SDS011;57649;42.968;1.608;2022-08-19T09:19:28;3.50;;;1.48;;
70253;SDS011;57649;42.968;1.608;2022-08-19T09:21:54;7.82;;;1.58;;
70253;SDS011;57649;42.968;1.608;2022-08-19T09:24:20;2.42;;;1.40;;
70253;SDS011;57649;42.968;1.608;2022-08-19T09:26:46;2.85;;;1.13;;
70253;SDS011;57649;42.968;1.608;2022-08-19T09:29:11;4.03;;;1.10;;
70253;SDS011;57649;42.968;1.608;2022-08-19T09:31:37;3.97;;;1.63;;
70253;SDS011;57649;42.968;1.608;2022-08-19T09:34:03;1.38;;;1.00;;
70253;SDS011;57649;42.968;1.608;2022-08-19T09:36:33;2.15;;;1.15;;
70253;SDS011;57649;42.968;1.608;2022-08-19T09:39:01;1.63;;;1.10;;
70253;SDS011;57649;42.968;1.608;2022-08-19T09:41:28;2.38;;;1.13;;
70253;SDS011;57649;42.968;1.608;2022-08-19T09:43:54;2.22;;;1.20;;
70253;SDS011;57649;42.968;1.608;2022-08-19T09:46:21;2.20;;;1.33;;
70253;SDS011;57649;42.968;1.608;2022-08-19T09:48:48;1.33;;;0.90;;
70253;SDS011;57649;42.968;1.608;2022-08-19T09:51:25;1.98;;;1.10;;
70253;SDS011;57649;42.968;1.608;2022-08-19T09:53:53;1.63;;;1.10;;
70253;SDS011;57649;42.968;1.608;2022-08-19T09:56:20;2.42;;;0.88;;
70253;SDS011;57649;42.968;1.608;2022-08-19T09:58:46;1.63;;;0.98;;
70253;SDS011;57649;42.968;1.608;2022-08-19T10:01:31;3.30;;;1.40;;
70253;SDS011;57649;42.968;1.608;2022-08-19T10:03:57;3.15;;;1.25;;
70253;SDS011;57649;42.968;1.608;2022-08-19T10:06:25;2.63;;;0.75;;
70253;SDS011;57649;42.968;1.608;2022-08-19T10:08:55;3.95;;;0.70;;
70253;SDS011;57649;42.968;1.608;2022-08-19T10:11:20;3.28;;;1.30;;
70253;SDS011;57649;42.968;1.608;2022-08-19T10:13:46;1.38;;;0.75;;
70253;SDS011;57649;42.968;1.608;2022-08-19T10:16:16;1.98;;;0.80;;
70253;SDS011;57649;42.968;1.608;2022-08-19T10:18:44;2.38;;;0.80;;
70253;SDS011;57649;42.968;1.608;2022-08-19T10:21:15;1.85;;;0.93;;
70253;SDS011;57649;42.968;1.608;2022-08-19T10:23:44;2.85;;;1.00;;
70253;SDS011;57649;42.968;1.608;2022-08-19T10:26:12;2.92;;;1.30;;
70253;SDS011;57649;42.968;1.608;2022-08-19T10:28:40;1.35;;;1.00;;
70253;SDS011;57649;42.968;1.608;2022-08-19T10:31:06;3.20;;;0.90;;
70253;SDS011;57649;42.968;1.608;2022-08-19T10:33:34;1.65;;;1.02;;
70253;SDS011;57649;42.968;1.608;2022-08-19T10:36:05;3.40;;;1.02;;
70253;SDS011;57649;42.968;1.608;2022-08-19T10:38:42;2.83;;;1.20;;
70253;SDS011;57649;42.968;1.608;2022-08-19T10:43:40;3.80;;;1.10;;
70253;SDS011;57649;42.968;1.608;2022-08-19T10:46:07;2.35;;;1.20;;
70253;SDS011;57649;42.968;1.608;2022-08-19T10:48:35;1.55;;;0.80;;
70253;SDS011;57649;42.968;1.608;2022-08-19T10:51:00;1.65;;;0.75;;
70253;SDS011;57649;42.968;1.608;2022-08-19T10:53:45;3.45;;;1.05;;
70253;SDS011;57649;42.968;1.608;2022-08-19T10:56:10;1.50;;;0.90;;
70253;SDS011;57649;42.968;1.608;2022-08-19T10:58:54;0.93;;;0.80;;
70253;SDS011;57649;42.968;1.608;2022-08-19T11:01:21;1.38;;;0.65;;
70253;SDS011;57649;42.968;1.608;2022-08-19T11:03:46;1.02;;;0.60;;
70253;SDS011;57649;42.968;1.608;2022-08-19T11:06:12;4.88;;;1.00;;
70253;SDS011;57649;42.968;1.608;2022-08-19T11:08:39;1.95;;;0.70;;
70253;SDS011;57649;42.968;1.608;2022-08-19T11:11:05;2.75;;;0.95;;
70253;SDS011;57649;42.968;1.608;2022-08-19T11:13:33;0.90;;;0.60;;
70253;SDS011;57649;42.968;1.608;2022-08-19T11:18:33;1.50;;;0.80;;
70253;SDS011;57649;42.968;1.608;2022-08-19T11:21:11;5.20;;;0.95;;
70253;SDS011;57649;42.968;1.608;2022-08-19T11:23:51;3.20;;;1.00;;
70253;SDS011;57649;42.968;1.608;2022-08-19T11:26:19;3.00;;;0.80;;
70253;SDS011;57649;42.968;1.608;2022-08-19T11:28:46;0.70;;;0.60;;
70253;SDS011;57649;42.968;1.608;2022-08-19T11:31:22;1.63;;;0.73;;
70253;SDS011;57649;42.968;1.608;2022-08-19T11:33:49;1.80;;;0.85;;
70253;SDS011;57649;42.968;1.608;2022-08-19T11:36:20;0.80;;;0.70;;
70253;SDS011;57649;42.968;1.608;2022-08-19T11:38:47;1.85;;;0.70;;
70253;SDS011;57649;42.968;1.608;2022-08-19T11:41:14;1.58;;;0.80;;
70253;SDS011;57649;42.968;1.608;2022-08-19T11:43:41;2.85;;;0.82;;
70253;SDS011;57649;42.968;1.608;2022-08-19T11:46:07;1.85;;;0.70;;
70253;SDS011;57649;42.968;1.608;2022-08-19T11:48:34;1.17;;;0.68;;
70253;SDS011;57649;42.968;1.608;2022-08-19T11:51:02;3.60;;;1.10;;
70253;SDS011;57649;42.968;1.608;2022-08-19T11:53:31;2.42;;;0.63;;
70253;SDS011;57649;42.968;1.608;2022-08-19T11:55:57;1.20;;;0.70;;
70253;SDS011;57649;42.968;1.608;2022-08-19T11:58:22;1.63;;;0.82;;
70253;SDS011;57649;42.968;1.608;2022-08-19T12:00:50;0.85;;;0.63;;
70253;SDS011;57649;42.968;1.608;2022-08-19T12:03:16;2.42;;;1.00;;
70253;SDS011;57649;42.968;1.608;2022-08-19T12:05:42;1.58;;;0.75;;
70253;SDS011;57649;42.968;1.608;2022-08-19T12:08:08;1.55;;;0.73;;
70253;SDS011;57649;42.968;1.608;2022-08-19T12:10:33;1.55;;;0.80;;
70253;SDS011;57649;42.968;1.608;2022-08-19T12:13:00;1.55;;;0.70;;
70253;SDS011;57649;42.968;1.608;2022-08-19T12:15:26;2.65;;;0.90;;
70253;SDS011;57649;42.968;1.608;2022-08-19T12:17:53;5.03;;;1.27;;
70253;SDS011;57649;42.968;1.608;2022-08-19T12:20:21;2.15;;;0.80;;
70253;SDS011;57649;42.968;1.608;2022-08-19T12:22:48;2.10;;;0.70;;
70253;SDS011;57649;42.968;1.608;2022-08-19T12:25:14;1.67;;;0.82;;
70253;SDS011;57649;42.968;1.608;2022-08-19T12:27:39;2.67;;;0.95;;
70253;SDS011;57649;42.968;1.608;2022-08-19T12:30:06;3.40;;;0.93;;
70253;SDS011;57649;42.968;1.608;2022-08-19T12:32:34;2.17;;;0.60;;
70253;SDS011;57649;42.968;1.608;2022-08-19T12:34:59;2.15;;;1.10;;
70253;SDS011;57649;42.968;1.608;2022-08-19T12:37:25;3.40;;;1.13;;
70253;SDS011;57649;42.968;1.608;2022-08-19T12:39:50;2.35;;;0.90;;
70253;SDS011;57649;42.968;1.608;2022-08-19T12:42:16;1.35;;;0.85;;
70253;SDS011;57649;42.968;1.608;2022-08-19T12:44:43;1.77;;;0.80;;
70253;SDS011;57649;42.968;1.608;2022-08-19T12:47:09;2.53;;;0.93;;
70253;SDS011;57649;42.968;1.608;2022-08-19T12:49:37;1.75;;;0.77;;
70253;SDS011;57649;42.968;1.608;2022-08-19T12:52:04;2.17;;;1.13;;
70253;SDS011;57649;42.968;1.608;2022-08-19T12:54:32;2.67;;;1.02;;
70253;SDS011;57649;42.968;1.608;2022-08-19T12:56:58;2.85;;;0.90;;
70253;SDS011;57649;42.968;1.608;2022-08-19T12:59:24;2.00;;;1.13;;
70253;SDS011;57649;42.968;1.608;2022-08-19T13:01:50;8.20;;;4.00;;
70253;SDS011;57649;42.968;1.608;2022-08-19T13:04:16;2.20;;;0.88;;
70253;SDS011;57649;42.968;1.608;2022-08-19T13:06:42;2.63;;;1.58;;
70253;SDS011;57649;42.968;1.608;2022-08-19T13:09:07;2.40;;;1.17;;
70253;SDS011;57649;42.968;1.608;2022-08-19T13:11:34;1.73;;;1.10;;
70253;SDS011;57649;42.968;1.608;2022-08-19T13:14:00;1.75;;;1.17;;
70253;SDS011;57649;42.968;1.608;2022-08-19T13:16:26;4.70;;;1.10;;
70253;SDS011;57649;42.968;1.608;2022-08-19T13:18:52;2.08;;;0.90;;
70253;SDS011;57649;42.968;1.608;2022-08-19T13:21:19;2.20;;;0.90;;
70253;SDS011;57649;42.968;1.608;2022-08-19T13:23:48;2.33;;;0.80;;
70253;SDS011;57649;42.968;1.608;2022-08-19T13:26:14;2.88;;;0.82;;
70253;SDS011;57649;42.968;1.608;2022-08-19T13:28:41;1.95;;;0.80;;
70253;SDS011;57649;42.968;1.608;2022-08-19T13:31:27;1.75;;;0.90;;
70253;SDS011;57649;42.968;1.608;2022-08-19T13:34:13;4.72;;;1.05;;
70253;SDS011;57649;42.968;1.608;2022-08-19T13:36:39;1.58;;;0.90;;
70253;SDS011;57649;42.968;1.608;2022-08-19T13:39:06;2.05;;;1.13;;
70253;SDS011;57649;42.968;1.608;2022-08-19T13:41:33;1.23;;;1.00;;
70253;SDS011;57649;42.968;1.608;2022-08-19T13:43:59;3.35;;;0.90;;
70253;SDS011;57649;42.968;1.608;2022-08-19T13:46:24;3.38;;;0.70;;
70253;SDS011;57649;42.968;1.608;2022-08-19T13:48:52;2.35;;;0.73;;
70253;SDS011;57649;42.968;1.608;2022-08-19T13:51:17;2.08;;;0.60;;
70253;SDS011;57649;42.968;1.608;2022-08-19T13:53:43;0.68;;;0.52;;
70253;SDS011;57649;42.968;1.608;2022-08-19T13:56:10;2.63;;;0.80;;
70253;SDS011;57649;42.968;1.608;2022-08-19T13:58:40;2.38;;;0.75;;
70253;SDS011;57649;42.968;1.608;2022-08-19T14:01:06;1.38;;;0.70;;
70253;SDS011;57649;42.968;1.608;2022-08-19T14:03:32;1.48;;;0.80;;
70253;SDS011;57649;42.968;1.608;2022-08-19T14:05:58;2.40;;;1.50;;
70253;SDS011;57649;42.968;1.608;2022-08-19T14:08:24;0.98;;;0.63;;
70253;SDS011;57649;42.968;1.608;2022-08-19T14:10:52;1.53;;;0.60;;
70253;SDS011;57649;42.968;1.608;2022-08-19T14:13:19;0.80;;;0.65;;
70253;SDS011;57649;42.968;1.608;2022-08-19T14:15:45;2.40;;;1.85;;
70253;SDS011;57649;42.968;1.608;2022-08-19T14:18:12;1.77;;;0.95;;
70253;SDS011;57649;42.968;1.608;2022-08-19T14:20:38;1.20;;;0.70;;
70253;SDS011;57649;42.968;1.608;2022-08-19T14:23:03;2.42;;;0.80;;
70253;SDS011;57649;42.968;1.608;2022-08-19T14:25:32;1.67;;;0.70;;
70253;SDS011;57649;42.968;1.608;2022-08-19T14:27:58;1.98;;;0.60;;
70253;SDS011;57649;42.968;1.608;2022-08-19T14:30:25;2.15;;;1.15;;
70253;SDS011;57649;42.968;1.608;2022-08-19T14:32:56;0.65;;;0.63;;
70253;SDS011;57649;42.968;1.608;2022-08-19T14:35:27;3.25;;;1.02;;
70253;SDS011;57649;42.968;1.608;2022-08-19T14:37:54;1.10;;;0.60;;
70253;SDS011;57649;42.968;1.608;2022-08-19T14:40:22;2.75;;;0.70;;
70253;SDS011;57649;42.968;1.608;2022-08-19T14:42:53;3.58;;;1.00;;
70253;SDS011;57649;42.968;1.608;2022-08-19T14:45:28;1.83;;;0.80;;
70253;SDS011;57649;42.968;1.608;2022-08-19T14:47:56;2.35;;;0.75;;
70253;SDS011;57649;42.968;1.608;2022-08-19T14:50:22;1.05;;;0.63;;
70253;SDS011;57649;42.968;1.608;2022-08-19T14:52:48;1.92;;;0.90;;
70253;SDS011;57649;42.968;1.608;2022-08-19T14:55:14;1.73;;;0.80;;
70253;SDS011;57649;42.968;1.608;2022-08-19T14:57:42;1.55;;;1.00;;
70253;SDS011;57649;42.968;1.608;2022-08-19T15:00:08;1.42;;;0.95;;
70253;SDS011;57649;42.968;1.608;2022-08-19T15:02:40;0.95;;;0.70;;